首页
METAR-TAF:

METAR-TAF

机场 :

羅曼·莫圖國際機場

科羅爾, 巴伯尔道布岛, 帛琉

纬度: 07-22N, 经度: 134-32E, 海拔: 54米

当前天气观测

该预报发布于23分钟前的16:50 UTC
风速5节,风向
温度 26°C
湿度 89%
气压 1009 hPa
能見度: 24.1公里
散云层高于1600英尺
多云层高于30000英尺

METAR: PTRO 121650Z 01005KT 15SM SCT016 BKN300 26/24 A2980

时间: 02:13 (17:13 UTC)

预报

该预报发布于5小时和34分钟前的11:39 UTC
预报有效从12日的 12点(UTC)到 13日的 12点(UTC)
风速8节,风向东北
能見度: 10公里
散云层高于1600英尺
多云层高于12000英尺
从 12日的 1500点(UTC)
风速8节,风向东北
能見度: 10公里
散云层高于1600英尺
多云层高于12000英尺
附近有阵雨
从 13日的 0200点(UTC)
风速12节,风向东转东北
能見度: 10公里
散云层高于1600英尺
多云层高于12000英尺
附近有阵雨

TAF: PTRO 121139Z 1212/1312 04008KT P6SM SCT016 BKN120 FM121500 05008KT P6SM VCSH SCT016 BKN120 FM130200 06012KT P6SM VCSH SCT016 BKN120

超过4000个机场的气象观测和天气预报(METAR&TAF报告)。

可查询的气象台以黄色和红色小点在地图上表示。

将鼠标移到小点上方,可查看气象台名称。

然后点击查看天气观测和预报。

如需切换地图:点击带黑十字的绿色按钮放大地图;点击带横线的绿色按钮缩小地图;或者点击绿色箭头查看邻近地区的地图。


METAR-TAF: